createdAt,value
2023-03-23T16:00:42.175Z,98874.68
2023-03-23T16:05:46.173Z,98869.19
2023-03-23T16:10:50.933Z,98869.73
2023-03-23T16:15:54.315Z,98876.30
2023-03-23T16:20:58.244Z,98879.65
2023-03-23T16:26:01.551Z,98879.70
2023-03-23T16:31:05.912Z,98880.44
2023-03-23T16:36:12.988Z,98879.91
2023-03-23T16:41:16.607Z,98887.02
2023-03-23T16:46:20.316Z,98910.89
2023-03-23T16:51:24.142Z,98908.92
2023-03-23T16:56:27.580Z,98913.43
2023-03-23T17:01:31.238Z,98911.78
2023-03-23T17:06:34.790Z,98898.95
2023-03-23T17:11:38.203Z,98890.63
2023-03-23T17:16:41.682Z,98897.19
2023-03-23T17:21:45.438Z,98903.24
2023-03-23T17:26:48.749Z,98912.58
2023-03-23T17:31:52.835Z,98914.40
2023-03-23T17:36:56.194Z,98912.50
2023-03-23T17:42:01.090Z,98912.27
2023-03-23T17:47:04.708Z,98919.96
2023-03-23T17:52:07.967Z,98911.42
2023-03-23T17:57:11.838Z,98903.61
2023-03-23T18:02:15.745Z,98913.27
2023-03-23T18:07:23.750Z,98911.11
2023-03-23T18:12:27.455Z,98916.45
2023-03-23T18:17:31.083Z,98915.23
2023-03-23T18:22:34.632Z,98920.63
2023-03-23T18:27:38.310Z,98923.08
2023-03-23T18:32:42.050Z,98929.42
2023-03-23T18:37:48.116Z,98926.78
2023-03-23T18:42:51.521Z,98922.61
2023-03-23T18:47:55.081Z,98920.36
2023-03-23T18:53:00.305Z,98912.77
2023-03-23T18:58:04.565Z,98921.66
2023-03-23T19:03:08.385Z,98932.61
2023-03-23T19:08:12.078Z,98935.17
2023-03-23T19:13:17.436Z,98931.50
2023-03-23T19:18:21.768Z,98933.42
2023-03-23T19:23:25.485Z,98941.36
2023-03-23T19:33:35.898Z,98936.23
2023-03-23T19:38:39.217Z,98953.70
2023-03-23T19:43:43.542Z,98969.89
2023-03-23T19:48:48.050Z,98974.64
2023-03-23T19:53:52.321Z,98988.18
2023-03-23T19:58:55.630Z,98984.92
2023-03-23T20:04:00.314Z,98984.38
2023-03-23T20:09:06.753Z,98988.04
2023-03-23T20:14:11.095Z,99015.08
2023-03-23T20:19:14.503Z,99024.88
2023-03-23T20:24:18.017Z,99028.04
2023-03-23T20:29:21.630Z,99033.34
2023-03-23T20:34:31.716Z,99043.02
2023-03-23T20:39:36.853Z,99057.29
2023-03-23T20:44:41.857Z,99059.86
2023-03-23T20:49:53.345Z,99055.08
2023-03-23T20:54:57.340Z,99058.15
2023-03-23T21:00:00.857Z,99068.26
2023-03-23T21:05:05.299Z,99069.25
2023-03-23T21:10:09.234Z,99060.05
2023-03-23T21:15:13.045Z,99057.18
2023-03-23T21:20:16.447Z,99049.50
2023-03-23T21:25:22.345Z,99045.75
2023-03-23T21:30:42.163Z,99056.17
2023-03-23T21:35:45.950Z,99073.55
2023-03-23T21:40:49.448Z,99077.77
2023-03-23T21:45:56.354Z,99071.59
2023-03-23T21:51:08.231Z,99069.35
2023-03-23T21:56:12.082Z,99074.82
2023-03-23T22:01:16.445Z,99077.61
2023-03-23T22:06:31.305Z,99058.82
2023-03-23T22:11:34.922Z,99040.30
2023-03-23T22:16:38.261Z,99036.86
2023-03-23T22:21:42.055Z,99026.83
2023-03-23T22:26:46.213Z,99018.66
2023-03-23T22:31:49.644Z,99036.21
2023-03-23T22:36:53.114Z,99049.13
2023-03-23T22:41:56.320Z,99048.79
2023-03-23T22:46:59.937Z,99053.10
2023-03-23T22:52:03.762Z,99059.06
2023-03-23T22:57:07.099Z,99058.19
2023-03-23T23:02:10.589Z,99054.21
2023-03-23T23:07:14.829Z,99042.02
2023-03-23T23:12:19.155Z,99043.99
2023-03-23T23:17:22.259Z,99040.48
2023-03-23T23:22:26.796Z,99047.09
2023-03-23T23:27:30.114Z,99036.46
2023-03-23T23:32:34.019Z,99035.13
2023-03-23T23:37:37.556Z,99041.09
2023-03-23T23:42:41.906Z,99040.51
2023-03-23T23:47:46.186Z,99035.84
2023-03-23T23:52:50.353Z,99034.11
2023-03-23T23:57:54.173Z,99039.59
